Burlington, Canada
Current Conditions -  °F | °C
As of 9:00 PM on Wednesday 22 Oct 2014 (Local Time) from CYHM Reporting Station
Few Clouds Few Clouds  
Wind Chill: 41°   Ceiling: Unl
Heat Index: 45°   Visibility: 15mi
Dew Point: 37°   Wind: 6mph
Humidity: 76%   Direction: 350°N
Pressure: 30.23"   Gusts: NA
Location:  43.33°N, 79.8°W
Report Text: CYHM 230100Z 35005KT 15SM FEW037 07/03 A3023 RMK SC2 SLP244
Loading
Personal Weather Stations






























Interactive Weather Map
Tropical Storm Tracking
New forecast layout! Learn more

10-Day Weather Forecast

Advertisements
Track Severe Weather on mobile